Time;durP1;ratioP1;P1;durP2;ratioP2;P2;SDS_P1;SDS_P2;PMS_P1;PMS_P2;Temp;Humidity;BMP_temperature;BMP_pressure;BME280_temperature;BME280_humidity;BME280_pressure;Samples;Min_cycle;Max_cycle;Signal;HPM_P1;HPM_P2
2021/07/02 00:01:10;;;;;;;;;;;18.30;64.40;;;;;;5029613;28;19915;-84
2021/07/02 00:03:36;;;;;;;;;;;18.40;64.50;;;;;;5027017;28;19925;-84
2021/07/02 00:06:01;;;;;;;;;;;18.40;64.40;;;;;;5021855;28;19909;-84
2021/07/02 00:08:28;;;;;;;;;;;18.40;64.40;;;;;;5034943;28;20045;-84
2021/07/02 00:10:54;;;;;;;;;;;18.40;64.40;;;;;;5032149;28;19916;-84
2021/07/02 00:13:20;;;;;;;;;;;18.40;64.40;;;;;;5026003;28;19937;-84
2021/07/02 00:15:46;;;;;;;;;;;18.40;64.40;;;;;;5026365;28;19972;-84
2021/07/02 00:18:11;;;;;;;;;;;18.40;64.40;;;;;;5015619;28;20380;-84
2021/07/02 00:20:37;;;;;;;;;;;18.40;64.50;;;;;;5020317;28;19913;-84
2021/07/02 00:23:02;;;;;;;;;;;18.30;64.40;;;;;;5032046;28;19919;-84
2021/07/02 00:25:28;;;;;;;;;;;18.30;64.50;;;;;;5036374;28;20544;-84
2021/07/02 00:27:53;;;;;;;;;;;18.30;64.50;;;;;;5020222;28;19913;-84
2021/07/02 00:30:19;;;;;;;;;;;18.30;64.50;;;;;;5021302;28;19909;-84
2021/07/02 00:32:45;;;;;;;;;;;18.30;64.50;;;;;;5008818;28;20282;-84
2021/07/02 00:35:10;;;;;;;;;;;18.30;64.60;;;;;;5020121;28;20492;-84
2021/07/02 00:37:36;;;;;;;;;;;18.30;64.60;;;;;;5020589;28;19913;-84
2021/07/02 00:40:02;;;;;;;;;;;18.30;64.70;;;;;;5025452;28;19920;-84
2021/07/02 00:42:28;;;;;;;;;;;18.20;65.30;;;;;;5017313;28;20009;-84
2021/07/02 00:44:54;;;;;;;;;;;18.20;64.80;;;;;;5028478;28;20016;-84
2021/07/02 00:47:19;;;;;;;;;;;18.20;64.70;;;;;;5028038;28;19917;-84
2021/07/02 00:49:45;;;;;;;;;;;18.30;64.80;;;;;;5015689;28;19908;-84
2021/07/02 00:52:11;;;;;;;;;;;18.30;64.70;;;;;;5026052;28;19916;-84
2021/07/02 00:54:38;;;;;;;;;;;18.30;64.80;;;;;;5004865;28;19909;-83
2021/07/02 00:57:04;;;;;;;;;;;18.20;64.80;;;;;;5022035;28;19961;-85
2021/07/02 00:59:30;;;;;;;;;;;18.20;64.90;;;;;;5021377;28;20376;-84
2021/07/02 01:01:56;;;;;;;;;;;18.10;64.90;;;;;;4997982;28;19913;-85
2021/07/02 01:04:24;;;;;;;;;;;18.10;65.00;;;;;;5005202;28;1220531;-83
2021/07/02 01:06:53;;;;;;;;;;;18.10;65.10;;;;;;5040225;28;19944;-85
2021/07/02 01:09:23;;;;;;;;;;;18.10;65.20;;;;;;5030506;28;20328;-83
2021/07/02 01:11:49;;;;;;;;;;;18.00;65.30;;;;;;5040838;28;19931;-83
2021/07/02 01:14:14;;;;;;;;;;;18.10;65.40;;;;;;5043269;28;19908;-83
2021/07/02 01:16:40;;;;;;;;;;;18.10;65.30;;;;;;5028869;28;19963;-83
2021/07/02 01:19:06;;;;;;;;;;;18.10;65.30;;;;;;5027112;28;20050;-83
2021/07/02 01:21:32;;;;;;;;;;;18.00;65.30;;;;;;5049228;28;20374;-83
2021/07/02 01:23:57;;;;;;;;;;;18.00;65.50;;;;;;5044302;28;19917;-83
2021/07/02 01:26:23;;;;;;;;;;;18.00;65.50;;;;;;5048131;28;19976;-83
2021/07/02 01:28:49;;;;;;;;;;;17.90;65.50;;;;;;5038193;28;19924;-83
2021/07/02 01:31:15;;;;;;;;;;;17.90;65.60;;;;;;5033147;28;19909;-83
2021/07/02 01:33:40;;;;;;;;;;;17.90;65.50;;;;;;5051913;28;19909;-83
2021/07/02 01:36:07;;;;;;;;;;;18.00;65.50;;;;;;5032765;28;19947;-83
2021/07/02 01:38:33;;;;;;;;;;;18.00;65.50;;;;;;5046025;28;19909;-83
2021/07/02 01:40:58;;;;;;;;;;;17.90;65.50;;;;;;5047079;28;20276;-83
2021/07/02 01:43:26;;;;;;;;;;;17.90;65.70;;;;;;5028415;28;19920;-83
2021/07/02 01:45:51;;;;;;;;;;;17.90;65.80;;;;;;5039895;28;19955;-83
2021/07/02 01:48:17;;;;;;;;;;;17.90;65.80;;;;;;5028729;28;19951;-84
2021/07/02 01:50:43;;;;;;;;;;;17.90;65.90;;;;;;5052179;28;19944;-85
2021/07/02 01:53:08;;;;;;;;;;;17.90;65.90;;;;;;5045362;28;19909;-84
2021/07/02 01:55:34;;;;;;;;;;;17.80;65.90;;;;;;5036028;28;20415;-84
2021/07/02 01:58:00;;;;;;;;;;;17.90;66.10;;;;;;5043965;28;20365;-84
2021/07/02 02:00:25;;;;;;;;;;;17.80;66.10;;;;;;5045387;28;19913;-84
2021/07/02 02:02:51;;;;;;;;;;;17.80;66.20;;;;;;5035403;28;20296;-84
2021/07/02 02:05:16;;;;;;;;;;;17.90;66.40;;;;;;5053737;28;19923;-84
2021/07/02 02:07:42;;;;;;;;;;;17.80;66.40;;;;;;5041743;28;19951;-84
2021/07/02 02:10:08;;;;;;;;;;;17.80;66.50;;;;;;5049448;28;19935;-84
2021/07/02 02:12:33;;;;;;;;;;;17.80;66.50;;;;;;5033756;28;19915;-84
2021/07/02 02:14:59;;;;;;;;;;;17.90;66.50;;;;;;5041311;28;19909;-85
2021/07/02 02:17:25;;;;;;;;;;;17.90;66.50;;;;;;5030016;28;19923;-84
2021/07/02 02:19:50;;;;;;;;;;;17.90;66.40;;;;;;5045333;28;19954;-84
2021/07/02 02:22:16;;;;;;;;;;;17.90;66.40;;;;;;5044908;28;19924;-84
2021/07/02 02:24:41;;;;;;;;;;;17.80;66.50;;;;;;5040783;28;19912;-83
2021/07/02 02:27:09;;;;;;;;;;;17.80;66.60;;;;;;5048105;28;19917;-82
2021/07/02 02:29:35;;;;;;;;;;;17.70;66.70;;;;;;5037461;28;19982;-83
2021/07/02 02:32:00;;;;;;;;;;;17.70;66.80;;;;;;5033035;28;19975;-83
2021/07/02 02:34:26;;;;;;;;;;;17.60;66.90;;;;;;5043402;28;20320;-84
2021/07/02 02:36:51;;;;;;;;;;;17.60;67.10;;;;;;5041949;28;19991;-83
2021/07/02 02:39:17;;;;;;;;;;;17.60;67.10;;;;;;5049013;28;19959;-83
2021/07/02 02:41:43;;;;;;;;;;;17.60;67.00;;;;;;5045702;28;20350;-83
2021/07/02 02:44:08;;;;;;;;;;;17.50;67.10;;;;;;5042614;28;19940;-85
2021/07/02 02:46:34;;;;;;;;;;;17.50;67.60;;;;;;5053913;28;19908;-84
2021/07/02 02:49:00;;;;;;;;;;;17.50;67.30;;;;;;5046967;28;20392;-85
2021/07/02 02:51:25;;;;;;;;;;;17.50;67.30;;;;;;5042295;28;20338;-85
2021/07/02 02:53:51;;;;;;;;;;;17.50;67.30;;;;;;5042585;28;19948;-84
2021/07/02 02:56:17;;;;;;;;;;;17.50;67.40;;;;;;5026467;28;19909;-85
2021/07/02 02:58:42;;;;;;;;;;;17.50;67.40;;;;;;5023351;28;20262;-85
2021/07/02 03:01:08;;;;;;;;;;;17.50;67.50;;;;;;5046042;28;19912;-85
2021/07/02 03:03:33;;;;;;;;;;;17.50;67.60;;;;;;5047504;28;19917;-84
2021/07/02 03:05:59;;;;;;;;;;;17.40;67.60;;;;;;5046574;28;20399;-85
2021/07/02 03:08:24;;;;;;;;;;;17.40;67.60;;;;;;5065751;28;20266;-85
2021/07/02 03:10:50;;;;;;;;;;;17.40;67.80;;;;;;5050436;28;19943;-85
2021/07/02 03:13:15;;;;;;;;;;;17.50;67.80;;;;;;5059797;28;19924;-85
2021/07/02 03:15:41;;;;;;;;;;;17.50;67.70;;;;;;5061008;28;19955;-85
2021/07/02 03:18:06;;;;;;;;;;;17.50;67.70;;;;;;5042097;28;20362;-85
2021/07/02 03:20:32;;;;;;;;;;;17.50;67.60;;;;;;5024356;28;19952;-85
2021/07/02 03:22:58;;;;;;;;;;;17.60;67.60;;;;;;5058273;28;19916;-85
2021/07/02 03:25:23;;;;;;;;;;;17.50;67.60;;;;;;5031801;28;19988;-85
2021/07/02 03:27:49;;;;;;;;;;;17.50;67.60;;;;;;5040866;28;19919;-85
2021/07/02 03:30:15;;;;;;;;;;;17.50;67.70;;;;;;5044922;28;19908;-85
2021/07/02 03:32:40;;;;;;;;;;;17.50;67.70;;;;;;5047774;28;20435;-85
2021/07/02 03:35:07;;;;;;;;;;;17.50;67.50;;;;;;5042968;28;19947;-85
2021/07/02 03:37:33;;;;;;;;;;;17.40;67.50;;;;;;5051346;28;19951;-85
2021/07/02 03:39:59;;;;;;;;;;;17.40;67.70;;;;;;5060629;28;19947;-85
2021/07/02 03:42:24;;;;;;;;;;;17.40;67.80;;;;;;5040602;28;19915;-85
2021/07/02 03:44:50;;;;;;;;;;;17.30;68.00;;;;;;5024923;28;20361;-85
2021/07/02 03:47:15;;;;;;;;;;;17.30;67.80;;;;;;5039528;28;19913;-84
2021/07/02 03:49:41;;;;;;;;;;;17.30;67.90;;;;;;5037521;28;19904;-85
2021/07/02 03:52:07;;;;;;;;;;;17.30;68.00;;;;;;5042454;28;20004;-83
2021/07/02 03:54:32;;;;;;;;;;;17.30;68.00;;;;;;5046194;28;19909;-85
2021/07/02 03:57:11;;;;;;;;;;;17.30;68.10;;;;;;5033179;28;19909;-84
2021/07/02 03:59:37;;;;;;;;;;;17.30;68.00;;;;;;5034566;28;20404;-85
2021/07/02 04:02:03;;;;;;;;;;;17.30;68.00;;;;;;5054100;28;19905;-85
2021/07/02 04:04:44;;;;;;;;;;;17.30;67.90;;;;;;5020393;28;19923;-85
2021/07/02 04:07:11;;;;;;;;;;;17.30;68.00;;;;;;5022011;28;19920;-85
2021/07/02 04:09:38;;;;;;;;;;;17.20;68.00;;;;;;5028640;28;20283;-85
2021/07/02 04:12:03;;;;;;;;;;;17.20;68.20;;;;;;5022771;28;19909;-85
2021/07/02 04:14:29;;;;;;;;;;;17.30;68.10;;;;;;5028300;28;20282;-84
2021/07/02 04:16:55;;;;;;;;;;;17.40;68.10;;;;;;5024593;28;20290;-84
2021/07/02 04:19:21;;;;;;;;;;;17.40;67.90;;;;;;5011841;28;19913;-84
2021/07/02 04:21:46;;;;;;;;;;;17.40;67.80;;;;;;5004013;28;19909;-85
2021/07/02 04:24:12;;;;;;;;;;;17.50;67.80;;;;;;5020181;28;19913;-85
2021/07/02 04:26:38;;;;;;;;;;;17.50;67.60;;;;;;5013773;28;19940;-84
2021/07/02 04:29:03;;;;;;;;;;;17.50;67.70;;;;;;5013072;28;20282;-85
2021/07/02 04:31:29;;;;;;;;;;;17.50;67.60;;;;;;5029690;28;19923;-85
2021/07/02 04:33:55;;;;;;;;;;;17.50;67.50;;;;;;5007960;28;19916;-84
2021/07/02 04:36:20;;;;;;;;;;;17.60;67.50;;;;;;5018066;28;19916;-85
2021/07/02 04:38:46;;;;;;;;;;;17.60;67.50;;;;;;5017633;28;20023;-84
2021/07/02 04:41:11;;;;;;;;;;;17.60;67.50;;;;;;5021666;28;20354;-86
2021/07/02 04:43:37;;;;;;;;;;;17.60;67.40;;;;;;5006925;28;20364;-84
2021/07/02 04:46:03;;;;;;;;;;;17.60;67.40;;;;;;5018102;28;19909;-84
2021/07/02 04:48:28;;;;;;;;;;;17.60;67.40;;;;;;5031820;28;19909;-85
2021/07/02 04:50:54;;;;;;;;;;;17.60;67.40;;;;;;5017130;28;19909;-84
2021/07/02 04:53:20;;;;;;;;;;;17.70;67.40;;;;;;5025867;28;19940;-84
2021/07/02 04:55:46;;;;;;;;;;;17.70;67.30;;;;;;5016636;28;19917;-84
2021/07/02 04:58:12;;;;;;;;;;;17.70;67.20;;;;;;5030344;28;19935;-84
2021/07/02 05:00:38;;;;;;;;;;;17.70;67.30;;;;;;5018134;28;19916;-84
2021/07/02 05:03:04;;;;;;;;;;;17.80;67.20;;;;;;5020757;28;19963;-84
2021/07/02 05:05:30;;;;;;;;;;;17.80;67.10;;;;;;5010998;28;19909;-84
2021/07/02 05:07:55;;;;;;;;;;;17.80;67.20;;;;;;5024464;28;19913;-84
2021/07/02 05:10:21;;;;;;;;;;;17.90;67.10;;;;;;5023747;28;19913;-84
2021/07/02 05:12:47;;;;;;;;;;;17.80;67.00;;;;;;5029643;28;19932;-84
2021/07/02 05:15:12;;;;;;;;;;;17.90;66.90;;;;;;5022313;28;19905;-84
2021/07/02 05:17:40;;;;;;;;;;;17.90;66.90;;;;;;5018908;28;19909;-84
2021/07/02 05:20:06;;;;;;;;;;;17.90;66.80;;;;;;5016652;28;20656;-84
2021/07/02 05:22:31;;;;;;;;;;;17.90;66.80;;;;;;5015418;28;19996;-84
2021/07/02 05:24:57;;;;;;;;;;;18.00;66.80;;;;;;5017220;28;19913;-84
2021/07/02 05:27:23;;;;;;;;;;;18.00;66.70;;;;;;5005008;28;20389;-84
2021/07/02 05:29:48;;;;;;;;;;;17.90;66.70;;;;;;5019784;28;19909;-84
2021/07/02 05:32:14;;;;;;;;;;;18.00;66.90;;;;;;5027531;28;20000;-84
2021/07/02 05:34:39;;;;;;;;;;;17.90;66.70;;;;;;5018877;28;19909;-84
2021/07/02 05:37:05;;;;;;;;;;;17.90;66.90;;;;;;5037315;28;20376;-84
2021/07/02 05:39:31;;;;;;;;;;;17.90;67.60;;;;;;5027921;28;19999;-84
2021/07/02 05:41:56;;;;;;;;;;;18.00;67.00;;;;;;5025557;28;19905;-84
2021/07/02 05:44:22;;;;;;;;;;;18.00;67.00;;;;;;5018385;28;19913;-85
2021/07/02 05:46:47;;;;;;;;;;;18.00;66.80;;;;;;5039585;28;20293;-84
2021/07/02 05:49:14;;;;;;;;;;;18.00;67.10;;;;;;5022727;28;19924;-84
2021/07/02 05:51:40;;;;;;;;;;;18.00;67.10;;;;;;5020449;28;19956;-84
2021/07/02 05:54:05;;;;;;;;;;;18.10;67.00;;;;;;5030402;28;20026;-84
2021/07/02 05:56:31;;;;;;;;;;;18.10;67.00;;;;;;5037815;28;19908;-84
2021/07/02 05:58:57;;;;;;;;;;;18.20;67.10;;;;;;5028655;28;19949;-84
2021/07/02 06:01:23;;;;;;;;;;;18.20;67.00;;;;;;5044522;28;19912;-84
2021/07/02 06:03:49;;;;;;;;;;;18.20;67.00;;;;;;5006309;28;19918;-83
2021/07/02 06:06:15;;;;;;;;;;;18.20;67.00;;;;;;5023755;28;19909;-83
2021/07/02 06:08:40;;;;;;;;;;;18.30;66.90;;;;;;5020872;28;19916;-84
2021/07/02 06:11:06;;;;;;;;;;;18.30;66.80;;;;;;5030596;28;19913;-83
2021/07/02 06:13:31;;;;;;;;;;;18.30;66.90;;;;;;5042915;28;19988;-83
2021/07/02 06:15:57;;;;;;;;;;;18.40;66.80;;;;;;5036781;28;20389;-83
2021/07/02 06:18:23;;;;;;;;;;;18.40;66.60;;;;;;5018272;28;20321;-84
2021/07/02 06:20:52;;;;;;;;;;;18.50;66.70;;;;;;5030756;28;19909;-83
2021/07/02 06:23:21;;;;;;;;;;;18.50;66.70;;;;;;5034511;28;19910;-83
2021/07/02 06:25:46;;;;;;;;;;;18.50;66.60;;;;;;5014017;28;20004;-83
2021/07/02 06:28:13;;;;;;;;;;;18.60;66.50;;;;;;5020907;28;19952;-83
2021/07/02 06:30:39;;;;;;;;;;;18.60;66.60;;;;;;5019308;28;19913;-84
2021/07/02 06:33:04;;;;;;;;;;;18.50;66.50;;;;;;5038106;28;19920;-84
2021/07/02 06:35:30;;;;;;;;;;;18.50;66.70;;;;;;5023021;28;19909;-83
2021/07/02 06:37:56;;;;;;;;;;;18.60;66.70;;;;;;5029716;28;19912;-84
2021/07/02 06:40:21;;;;;;;;;;;18.60;66.50;;;;;;5038019;28;19951;-84
2021/07/02 06:42:47;;;;;;;;;;;18.60;66.40;;;;;;5033809;28;19943;-83
2021/07/02 06:45:14;;;;;;;;;;;18.60;66.50;;;;;;5032870;28;20285;-82
